createdAt,value
2018-03-26T00:01:25.073Z,43.35
2018-03-26T00:03:52.632Z,44.53
2018-03-26T00:06:20.188Z,38.80
2018-03-26T00:08:47.740Z,39.20
2018-03-26T00:11:16.760Z,40.00
2018-03-26T00:13:44.911Z,37.13
2018-03-26T00:16:12.452Z,40.00
2018-03-26T00:18:40.796Z,39.17
2018-03-26T00:21:08.335Z,34.63
2018-03-26T00:23:35.868Z,35.60
2018-03-26T00:26:03.435Z,38.70
2018-03-26T00:28:30.987Z,36.50
2018-03-26T00:30:59.294Z,33.55
2018-03-26T00:33:27.392Z,39.00
2018-03-26T00:35:54.932Z,40.10
2018-03-26T00:38:22.471Z,36.08
2018-03-26T00:40:50.037Z,34.80
2018-03-26T00:43:17.584Z,38.50
2018-03-26T00:45:45.120Z,38.00
2018-03-26T00:48:14.376Z,35.43
2018-03-26T00:50:41.917Z,41.73
2018-03-26T00:53:09.467Z,38.22
2018-03-26T00:55:37.578Z,42.23
2018-03-26T00:58:05.121Z,41.43
2018-03-26T01:00:32.656Z,35.27
2018-03-26T01:03:00.888Z,38.47
2018-03-26T01:05:28.436Z,36.37
2018-03-26T01:07:55.992Z,36.70
2018-03-26T01:10:23.574Z,39.35
2018-03-26T01:12:51.112Z,35.93
2018-03-26T01:15:19.022Z,36.05
2018-03-26T01:17:47.162Z,57.03
2018-03-26T01:20:15.507Z,40.93
2018-03-26T01:22:43.050Z,41.00
2018-03-26T01:25:10.618Z,45.95
2018-03-26T01:27:38.150Z,35.63
2018-03-26T01:30:05.692Z,41.53
2018-03-26T01:32:33.257Z,41.10
2018-03-26T01:35:00.792Z,37.57
2018-03-26T01:37:28.326Z,39.47
2018-03-26T01:39:56.420Z,38.37
2018-03-26T01:42:23.968Z,42.40
2018-03-26T01:44:51.504Z,42.05
2018-03-26T01:47:19.100Z,34.27
2018-03-26T01:49:46.647Z,40.40
2018-03-26T01:52:16.356Z,46.25
2018-03-26T01:54:43.929Z,42.60
2018-03-26T01:57:11.485Z,36.97
2018-03-26T01:59:39.023Z,46.07
2018-03-26T02:02:06.824Z,48.10
2018-03-26T02:04:34.360Z,41.93
2018-03-26T02:07:01.892Z,44.53
2018-03-26T02:09:29.461Z,48.40
2018-03-26T02:11:57.000Z,42.53
2018-03-26T02:14:24.535Z,45.20
2018-03-26T02:16:52.247Z,47.80
2018-03-26T02:19:19.809Z,41.83
2018-03-26T02:21:47.344Z,40.80
2018-03-26T02:24:15.943Z,50.70
2018-03-26T02:26:43.552Z,47.38
2018-03-26T02:29:11.057Z,45.53
2018-03-26T02:31:38.633Z,43.67
2018-03-26T02:34:06.168Z,38.73
2018-03-26T02:36:33.700Z,46.03
2018-03-26T02:39:01.280Z,46.57
2018-03-26T02:41:29.587Z,46.30
2018-03-26T02:43:57.129Z,42.93
2018-03-26T02:46:25.483Z,45.30
2018-03-26T02:48:53.020Z,41.03
2018-03-26T02:51:20.568Z,43.62
2018-03-26T02:53:48.143Z,41.27
2018-03-26T02:56:16.444Z,52.60
2018-03-26T02:58:44.003Z,38.13
2018-03-26T03:01:12.348Z,38.17
2018-03-26T03:03:39.892Z,43.77
2018-03-26T03:06:07.430Z,46.03
2018-03-26T03:08:35.228Z,41.20
2018-03-26T03:11:02.768Z,39.55
2018-03-26T03:13:30.307Z,39.23
2018-03-26T03:15:57.884Z,43.37
2018-03-26T03:18:25.868Z,43.43
2018-03-26T03:20:53.400Z,41.20
2018-03-26T03:23:20.969Z,37.35
2018-03-26T03:25:48.512Z,42.22
2018-03-26T03:28:16.451Z,33.08
2018-03-26T03:30:44.615Z,38.30
2018-03-26T03:33:12.164Z,42.97
2018-03-26T03:35:39.706Z,36.07
2018-03-26T03:38:07.280Z,61.90
2018-03-26T03:40:34.822Z,36.50
2018-03-26T03:43:02.356Z,39.30
2018-03-26T03:45:29.941Z,41.23
2018-03-26T03:47:58.243Z,39.30
2018-03-26T03:50:25.771Z,51.83
2018-03-26T03:52:53.876Z,53.37
2018-03-26T03:55:21.416Z,48.70
2018-03-26T03:57:49.177Z,52.23
2018-03-26T04:00:16.738Z,170.77
2018-03-26T04:02:44.276Z,55.40
2018-03-26T04:05:11.826Z,53.27
2018-03-26T04:07:39.405Z,42.70
2018-03-26T04:10:06.944Z,54.07
2018-03-26T04:12:34.496Z,46.17
2018-03-26T04:15:03.451Z,45.83
2018-03-26T04:17:31.167Z,40.57
2018-03-26T04:19:59.161Z,45.57
2018-03-26T04:22:26.739Z,42.03
2018-03-26T04:24:54.271Z,48.77
2018-03-26T04:27:21.817Z,43.00
2018-03-26T04:29:49.506Z,48.10
2018-03-26T04:32:17.043Z,48.30
2018-03-26T04:34:44.588Z,55.83
2018-03-26T04:37:14.162Z,53.33
2018-03-26T04:39:41.708Z,59.47
2018-03-26T04:42:09.248Z,58.93
2018-03-26T04:44:36.812Z,56.83
2018-03-26T04:47:04.351Z,48.10
2018-03-26T04:49:31.891Z,52.30
2018-03-26T04:52:00.241Z,50.70
2018-03-26T04:54:27.771Z,51.40
2018-03-26T04:56:55.308Z,61.77
2018-03-26T04:59:23.220Z,49.53
2018-03-26T05:01:50.772Z,69.13
2018-03-26T05:04:18.355Z,74.97
2018-03-26T05:06:45.940Z,75.23
2018-03-26T05:09:15.404Z,84.50
2018-03-26T05:11:42.939Z,65.03
2018-03-26T05:14:11.285Z,60.12
2018-03-26T05:16:38.823Z,86.57
2018-03-26T05:21:59.443Z,90.25
2018-03-26T05:24:26.980Z,52.83
2018-03-26T05:26:54.520Z,67.00
2018-03-26T05:29:22.864Z,64.85
2018-03-26T05:31:50.399Z,62.33
2018-03-26T05:34:17.944Z,55.07
2018-03-26T05:36:45.532Z,61.42
2018-03-26T05:39:24.397Z,61.65
2018-03-26T05:52:02.549Z,59.10
2018-03-26T05:54:30.135Z,70.43
2018-03-26T05:56:57.860Z,80.77
2018-03-26T05:59:25.431Z,62.97
2018-03-26T06:01:53.023Z,59.20
2018-03-26T06:04:21.360Z,71.63
2018-03-26T06:06:49.014Z,65.30
2018-03-26T06:09:16.576Z,75.57
2018-03-26T06:11:44.192Z,53.67
2018-03-26T06:14:12.246Z,63.80
2018-03-26T06:16:51.597Z,62.70
2018-03-26T06:19:19.162Z,64.77
2018-03-26T06:21:46.708Z,61.50
2018-03-26T06:24:16.655Z,61.03
2018-03-26T06:26:44.222Z,62.20
2018-03-26T06:29:11.780Z,66.13
2018-03-26T06:31:39.316Z,80.47
2018-03-26T06:34:07.516Z,73.70
2018-03-26T06:36:40.716Z,79.73
2018-03-26T06:39:27.976Z,80.13
2018-03-26T06:41:56.426Z,75.37
2018-03-26T06:44:23.968Z,75.35
2018-03-26T06:46:51.599Z,66.53
2018-03-26T06:49:19.171Z,75.80
2018-03-26T06:51:46.885Z,70.17
2018-03-26T06:54:26.538Z,77.62
2018-03-26T07:01:49.492Z,72.17
2018-03-26T07:04:17.108Z,71.27
2018-03-26T07:06:44.713Z,76.43
2018-03-26T07:09:14.170Z,78.20
2018-03-26T07:11:42.597Z,74.57
2018-03-26T07:14:10.924Z,81.50
2018-03-26T07:16:38.834Z,67.25
2018-03-26T07:19:06.376Z,71.37
2018-03-26T07:21:33.916Z,78.57
2018-03-26T07:24:02.270Z,68.00
2018-03-26T07:26:31.000Z,66.40
2018-03-26T07:28:58.783Z,79.10
2018-03-26T07:31:26.376Z,71.72
2018-03-26T07:33:53.926Z,78.53
2018-03-26T07:36:21.475Z,76.65
2018-03-26T07:38:53.836Z,73.20
2018-03-26T07:41:23.908Z,85.16
2018-03-26T07:43:51.480Z,76.57
2018-03-26T07:46:25.592Z,96.53
2018-03-26T07:51:33.056Z,67.57
2018-03-26T07:54:00.622Z,68.00
2018-03-26T07:56:28.172Z,67.70
2018-03-26T07:58:56.576Z,74.55
2018-03-26T08:01:24.117Z,86.25
2018-03-26T08:03:51.665Z,63.33
2018-03-26T08:06:19.260Z,64.00
2018-03-26T08:08:46.805Z,68.07
2018-03-26T08:11:26.760Z,64.32
2018-03-26T08:13:54.327Z,74.43
2018-03-26T08:16:21.889Z,65.22
2018-03-26T08:18:50.376Z,68.70
2018-03-26T08:21:17.920Z,68.90
2018-03-26T08:23:45.461Z,65.97
2018-03-26T08:26:27.239Z,66.17
2018-03-26T08:32:37.273Z,71.30
2018-03-26T08:35:07.060Z,70.73
2018-03-26T08:37:35.607Z,71.23
2018-03-26T08:40:04.024Z,71.13
2018-03-26T08:42:31.632Z,73.50
2018-03-26T08:44:59.135Z,75.57
2018-03-26T08:47:26.809Z,71.67
2018-03-26T08:49:54.429Z,68.90
2018-03-26T08:52:21.912Z,76.80
2018-03-26T08:54:49.479Z,67.07
2018-03-26T08:57:17.048Z,72.30
2018-03-26T08:59:44.661Z,69.37
2018-03-26T09:02:12.767Z,72.03
2018-03-26T09:04:40.305Z,66.53
2018-03-26T09:07:07.851Z,67.87
2018-03-26T09:09:35.425Z,63.63
2018-03-26T09:12:03.070Z,65.17
2018-03-26T09:14:30.596Z,70.22
2018-03-26T09:16:59.349Z,74.37
2018-03-26T09:19:26.892Z,59.77
2018-03-26T09:21:54.433Z,64.55
2018-03-26T09:24:22.061Z,76.83
2018-03-26T09:26:49.624Z,63.97
2018-03-26T09:29:17.165Z,67.70
2018-03-26T09:31:44.728Z,74.77
2018-03-26T09:34:12.569Z,68.57
2018-03-26T09:36:40.112Z,66.03
2018-03-26T09:39:07.682Z,68.40
2018-03-26T09:41:35.232Z,61.40
2018-03-26T09:44:02.790Z,57.43
2018-03-26T09:46:30.926Z,64.60
2018-03-26T09:48:58.604Z,60.90
2018-03-26T09:51:26.914Z,73.45
2018-03-26T09:53:54.496Z,58.15
2018-03-26T09:56:22.041Z,69.03
2018-03-26T09:58:49.603Z,50.07
2018-03-26T10:01:17.997Z,57.13
2018-03-26T10:03:45.546Z,57.83
2018-03-26T10:06:24.521Z,59.38
2018-03-26T10:13:25.508Z,58.27
2018-03-26T10:15:53.058Z,63.50
2018-03-26T10:18:21.376Z,65.67
2018-03-26T10:20:48.975Z,59.63
2018-03-26T10:23:16.532Z,59.15
2018-03-26T10:25:44.077Z,67.30
2018-03-26T10:28:12.157Z,58.10
2018-03-26T10:30:39.703Z,61.10
2018-03-26T10:33:08.241Z,58.23
2018-03-26T10:35:36.246Z,57.57
2018-03-26T10:38:03.979Z,63.73
2018-03-26T10:40:31.526Z,60.63
2018-03-26T10:42:59.091Z,62.75
2018-03-26T10:45:27.398Z,59.27
2018-03-26T10:47:55.157Z,60.90
2018-03-26T10:50:23.802Z,62.33
2018-03-26T10:52:51.384Z,63.00
2018-03-26T10:55:19.691Z,59.33
2018-03-26T10:57:47.264Z,60.37
2018-03-26T11:00:16.636Z,54.83
2018-03-26T11:02:44.926Z,59.67
2018-03-26T11:05:12.492Z,54.20
2018-03-26T11:07:40.039Z,64.67
2018-03-26T11:10:08.115Z,67.63
2018-03-26T11:12:36.586Z,69.20
2018-03-26T11:15:04.132Z,57.03
2018-03-26T11:17:31.671Z,60.90
2018-03-26T11:19:59.263Z,54.90
2018-03-26T11:22:26.841Z,64.33
2018-03-26T11:24:55.233Z,60.30
2018-03-26T11:27:30.838Z,58.40
2018-03-26T11:29:59.156Z,58.70
2018-03-26T11:32:26.718Z,65.70
2018-03-26T11:34:56.753Z,56.80
2018-03-26T11:37:31.483Z,59.20
2018-03-26T11:39:59.114Z,64.15
2018-03-26T11:42:27.702Z,60.05
2018-03-26T11:44:55.264Z,55.00
2018-03-26T11:47:23.608Z,61.83
2018-03-26T11:49:52.662Z,60.13
2018-03-26T11:52:20.474Z,61.15
2018-03-26T11:54:48.573Z,87.97
2018-03-26T11:57:16.430Z,57.33
2018-03-26T11:59:43.977Z,54.70
2018-03-26T12:02:11.597Z,55.97
2018-03-26T12:04:39.179Z,54.43
2018-03-26T12:07:07.528Z,60.17
2018-03-26T12:09:35.137Z,61.43
2018-03-26T12:12:02.688Z,55.27
2018-03-26T12:14:31.004Z,57.93
2018-03-26T12:16:58.839Z,58.70
2018-03-26T12:19:26.432Z,55.53
2018-03-26T12:21:54.165Z,53.83
2018-03-26T12:24:33.722Z,57.50
2018-03-26T12:27:02.317Z,64.00
2018-03-26T12:29:41.811Z,60.80
2018-03-26T12:32:10.133Z,64.23
2018-03-26T12:34:50.023Z,58.77
2018-03-26T12:37:18.524Z,56.33
2018-03-26T12:39:47.397Z,56.03
2018-03-26T12:42:16.539Z,61.10
2018-03-26T12:44:55.765Z,64.87
2018-03-26T12:47:23.371Z,56.72
2018-03-26T12:49:50.935Z,60.87
2018-03-26T12:52:30.698Z,73.40
2018-03-26T12:54:58.559Z,62.03
2018-03-26T12:57:37.977Z,61.73
2018-03-26T13:00:06.079Z,63.17
2018-03-26T13:02:33.640Z,58.67
2018-03-26T13:05:01.221Z,67.17
2018-03-26T13:07:29.436Z,60.23
2018-03-26T13:09:56.972Z,62.23
2018-03-26T13:12:25.209Z,59.15
2018-03-26T13:14:52.789Z,62.67
2018-03-26T13:17:21.117Z,57.25
2018-03-26T13:19:48.682Z,64.73
2018-03-26T13:22:16.498Z,65.83
2018-03-26T13:24:44.806Z,69.03
2018-03-26T13:27:14.081Z,60.40
2018-03-26T13:29:41.628Z,71.17
2018-03-26T13:32:09.962Z,70.97
2018-03-26T13:34:38.118Z,61.88
2018-03-26T13:37:05.668Z,69.20
2018-03-26T13:39:33.336Z,64.28
2018-03-26T13:42:01.305Z,69.47
2018-03-26T13:44:28.851Z,65.77
2018-03-26T13:46:56.401Z,70.13
2018-03-26T13:49:23.968Z,67.03
2018-03-26T13:51:52.284Z,59.40
2018-03-26T13:54:19.840Z,63.55
2018-03-26T13:56:47.992Z,54.60
2018-03-26T13:59:16.528Z,56.37
2018-03-26T14:01:44.840Z,55.23
2018-03-26T14:04:12.412Z,53.30
2018-03-26T14:06:39.959Z,59.20
2018-03-26T14:09:19.321Z,50.67
2018-03-26T14:11:58.484Z,61.17
2018-03-26T14:14:38.324Z,53.50
2018-03-26T14:17:17.594Z,56.07
2018-03-26T14:19:45.185Z,56.60
2018-03-26T14:22:13.643Z,54.87
2018-03-26T14:24:42.368Z,58.50
2018-03-26T14:27:09.941Z,56.17
2018-03-26T14:29:37.496Z,50.78
2018-03-26T14:32:05.071Z,55.97
2018-03-26T14:34:33.236Z,57.85
2018-03-26T14:37:00.788Z,64.70
2018-03-26T14:39:28.781Z,63.00
2018-03-26T14:41:56.372Z,59.10
2018-03-26T14:44:23.936Z,58.27
2018-03-26T14:46:51.516Z,61.65
2018-03-26T14:49:19.109Z,62.50
2018-03-26T14:51:46.659Z,75.43
2018-03-26T14:54:27.262Z,61.03
2018-03-26T14:59:29.107Z,71.83
2018-03-26T15:01:56.937Z,77.13
2018-03-26T15:04:24.487Z,70.82
2018-03-26T15:06:52.052Z,75.00
2018-03-26T15:09:19.587Z,70.30
2018-03-26T15:11:47.119Z,74.30
2018-03-26T15:14:18.993Z,81.10
2018-03-26T15:16:46.528Z,70.03
2018-03-26T15:19:31.096Z,62.67
2018-03-26T15:30:23.746Z,73.13
2018-03-26T15:32:51.351Z,68.30
2018-03-26T15:35:18.970Z,63.37
2018-03-26T15:37:46.544Z,66.97
2018-03-26T15:40:16.355Z,62.78
2018-03-26T15:42:43.916Z,62.03
2018-03-26T15:45:12.611Z,61.28
2018-03-26T15:47:40.911Z,60.67
2018-03-26T15:50:08.453Z,71.15
2018-03-26T15:52:36.508Z,59.40
2018-03-26T15:55:04.100Z,78.83
2018-03-26T15:57:31.639Z,61.88
2018-03-26T15:59:59.215Z,57.23
2018-03-26T16:02:32.312Z,60.50
2018-03-26T16:04:59.896Z,57.57
2018-03-26T16:07:27.460Z,55.07
2018-03-26T16:09:55.051Z,60.33
2018-03-26T16:12:22.656Z,52.58
2018-03-26T16:14:50.305Z,52.50
2018-03-26T16:17:19.659Z,52.27
2018-03-26T16:19:48.619Z,54.27
2018-03-26T16:22:17.887Z,71.28
2018-03-26T16:24:45.472Z,61.93
2018-03-26T16:27:14.952Z,66.56
2018-03-26T16:29:42.514Z,71.93
2018-03-26T16:32:10.332Z,76.37
2018-03-26T16:34:38.037Z,77.93
2018-03-26T16:37:06.314Z,85.80
2018-03-26T16:39:37.574Z,78.83
2018-03-26T16:42:18.051Z,77.70
2018-03-26T16:44:46.628Z,78.37
2018-03-26T16:47:25.695Z,80.18
2018-03-26T16:52:21.340Z,86.20
2018-03-26T16:54:50.292Z,84.47
2018-03-26T16:57:17.878Z,86.30
2018-03-26T16:59:45.396Z,80.80
2018-03-26T17:02:25.218Z,85.45
2018-03-26T17:13:09.146Z,94.47
2018-03-26T17:15:36.836Z,85.10
2018-03-26T17:18:04.474Z,91.70
2018-03-26T17:20:32.084Z,96.97
2018-03-26T17:22:59.754Z,96.20
2018-03-26T17:25:27.636Z,88.60
2018-03-26T17:27:55.206Z,86.57
2018-03-26T17:30:22.883Z,89.87
2018-03-26T17:32:50.656Z,84.63
2018-03-26T17:35:18.287Z,85.13
2018-03-26T17:37:45.829Z,79.20
2018-03-26T17:40:24.468Z,108.57
2018-03-26T17:47:43.868Z,62.87
2018-03-26T17:50:11.411Z,64.37
2018-03-26T17:52:38.992Z,50.30
2018-03-26T17:55:07.418Z,50.93
2018-03-26T17:57:34.998Z,52.73
2018-03-26T18:00:02.837Z,49.97
2018-03-26T18:02:30.517Z,53.73
2018-03-26T18:04:58.284Z,49.73
2018-03-26T18:07:25.893Z,50.12
2018-03-26T18:09:53.680Z,72.10
2018-03-26T18:12:21.280Z,60.63
2018-03-26T18:14:49.588Z,56.40
2018-03-26T18:17:17.198Z,63.43
2018-03-26T18:19:44.832Z,59.60
2018-03-26T18:22:12.372Z,56.57
2018-03-26T18:24:40.381Z,55.20
2018-03-26T18:27:08.125Z,55.57
2018-03-26T18:29:35.700Z,53.70
2018-03-26T18:32:03.364Z,55.27
2018-03-26T18:34:31.129Z,59.72
2018-03-26T18:36:58.702Z,69.67
2018-03-26T18:39:26.562Z,54.50
2018-03-26T18:41:54.151Z,59.27
2018-03-26T18:44:21.928Z,66.13
2018-03-26T18:46:49.576Z,62.80
2018-03-26T18:49:17.459Z,63.93
2018-03-26T18:51:45.089Z,66.53
2018-03-26T18:54:14.064Z,71.53
2018-03-26T18:56:41.672Z,69.37
2018-03-26T18:59:09.213Z,71.97
2018-03-26T19:01:37.293Z,64.63
2018-03-26T19:04:05.624Z,58.57
2018-03-26T19:06:33.169Z,64.55
2018-03-26T19:09:00.782Z,61.00
2018-03-26T19:11:28.729Z,60.60
2018-03-26T19:13:56.290Z,64.63
2018-03-26T19:16:23.908Z,59.87
2018-03-26T19:18:51.452Z,62.43
2018-03-26T19:21:18.995Z,63.30
2018-03-26T19:23:46.624Z,62.27
2018-03-26T19:26:16.308Z,64.03
2018-03-26T19:28:43.909Z,65.70
2018-03-26T19:31:11.472Z,77.37
2018-03-26T19:33:39.040Z,68.50
2018-03-26T19:36:06.646Z,76.10
2018-03-26T19:38:35.142Z,72.03
2018-03-26T19:41:02.701Z,76.50
2018-03-26T19:43:31.025Z,80.75
2018-03-26T19:45:58.793Z,83.23
2018-03-26T19:48:26.348Z,92.50
2018-03-26T19:50:55.968Z,92.87
2018-03-26T19:53:26.741Z,90.17
2018-03-26T19:55:54.447Z,95.80
2018-03-26T19:58:24.649Z,94.63
2018-03-26T20:00:54.191Z,88.93
2018-03-26T20:03:21.804Z,108.28
2018-03-26T20:05:49.368Z,89.77
2018-03-26T20:08:18.179Z,97.93
2018-03-26T20:10:45.736Z,102.63
2018-03-26T20:13:14.777Z,99.20
2018-03-26T20:15:43.223Z,97.70
2018-03-26T20:18:10.836Z,100.90
2018-03-26T20:20:38.372Z,100.33
2018-03-26T20:23:06.889Z,101.07
2018-03-26T20:25:34.528Z,106.53
2018-03-26T20:28:02.114Z,103.77
2018-03-26T20:30:29.960Z,111.00
2018-03-26T20:32:57.553Z,109.82
2018-03-26T20:35:25.186Z,102.07
2018-03-26T20:37:53.578Z,104.23
2018-03-26T20:40:21.400Z,115.47
2018-03-26T20:42:49.741Z,120.63
2018-03-26T20:45:17.431Z,113.50
2018-03-26T20:47:45.176Z,116.47
2018-03-26T20:50:13.694Z,124.87
2018-03-26T20:52:42.753Z,111.43
2018-03-26T20:55:11.073Z,130.07
2018-03-26T20:57:39.493Z,113.40
2018-03-26T21:00:07.191Z,125.37
2018-03-26T21:02:34.741Z,116.30
2018-03-26T21:05:02.316Z,127.50
2018-03-26T21:07:29.955Z,124.37
2018-03-26T21:09:57.514Z,130.45
2018-03-26T21:12:25.077Z,119.97
2018-03-26T21:14:53.760Z,109.37
2018-03-26T21:17:21.358Z,112.40
2018-03-26T21:19:48.984Z,117.30
2018-03-26T21:22:16.608Z,117.17
2018-03-26T21:24:44.182Z,122.13
2018-03-26T21:27:11.800Z,122.43
2018-03-26T21:29:40.241Z,118.13
2018-03-26T21:32:07.972Z,123.00
2018-03-26T21:34:35.519Z,120.72
2018-03-26T21:37:03.643Z,117.50
2018-03-26T21:39:31.189Z,114.77
2018-03-26T21:41:58.826Z,117.63
2018-03-26T21:44:26.404Z,116.10
2018-03-26T21:46:53.951Z,121.57
2018-03-26T21:49:21.491Z,120.13
2018-03-26T21:51:49.108Z,114.63
2018-03-26T21:54:17.121Z,131.00
2018-03-26T21:56:45.441Z,112.63
2018-03-26T21:59:25.609Z,127.38
2018-03-26T22:10:33.216Z,131.00
2018-03-26T22:13:00.823Z,134.20
2018-03-26T22:15:28.360Z,140.20
2018-03-26T22:17:56.360Z,138.50
2018-03-26T22:20:23.931Z,129.43
2018-03-26T22:22:51.552Z,139.07
2018-03-26T22:25:19.135Z,132.75
2018-03-26T22:27:47.611Z,129.53
2018-03-26T22:30:17.530Z,124.40
2018-03-26T22:32:45.175Z,124.47
2018-03-26T22:35:14.403Z,133.90
2018-03-26T22:37:41.986Z,132.80
2018-03-26T22:40:10.562Z,127.82
2018-03-26T22:42:38.893Z,143.53
2018-03-26T22:45:06.439Z,120.95
2018-03-26T22:47:34.043Z,131.73
2018-03-26T22:50:01.596Z,126.40
2018-03-26T22:52:29.140Z,127.53
2018-03-26T22:54:57.098Z,127.67
2018-03-26T22:57:24.664Z,133.97
2018-03-26T22:59:52.212Z,133.10
2018-03-26T23:02:20.122Z,137.68
2018-03-26T23:04:47.669Z,142.47
2018-03-26T23:07:17.268Z,135.70
2018-03-26T23:09:44.878Z,136.80
2018-03-26T23:12:12.460Z,141.98
2018-03-26T23:14:39.976Z,137.40
2018-03-26T23:17:07.540Z,141.30
2018-03-26T23:19:35.100Z,150.27
2018-03-26T23:22:02.649Z,150.13
2018-03-26T23:24:30.628Z,157.07
2018-03-26T23:26:58.173Z,142.03
2018-03-26T23:29:25.712Z,157.57
2018-03-26T23:31:53.304Z,146.93
2018-03-26T23:34:20.844Z,145.20
2018-03-26T23:36:48.384Z,146.27
2018-03-26T23:39:16.628Z,141.57
2018-03-26T23:41:44.936Z,152.17
2018-03-26T23:44:12.555Z,157.25
2018-03-26T23:46:41.217Z,143.77
2018-03-26T23:49:08.820Z,148.20
2018-03-26T23:51:42.149Z,149.50
2018-03-26T23:54:09.751Z,157.57
2018-03-26T23:56:37.460Z,149.82
2018-03-26T23:59:05.019Z,135.70
